Time;durP1;ratioP1;P1;durP2;ratioP2;P2;SDS_P1;SDS_P2;PMS_P1;PMS_P2;Temp;Humidity;BMP_temperature;BMP_pressure;BME280_temperature;BME280_humidity;BME280_pressure;Samples;Min_cycle;Max_cycle;Signal;HPM_P1;HPM_P2
2023/10/20 00:00:18;;;;;;;;;;;;;;;28.82;74.99;101099.03;5032680;28;70158;-41
2023/10/20 00:02:48;;;;;;;;;;;;;;;28.82;75.68;101105.25;5039408;28;67072;-41
2023/10/20 00:05:18;;;;;;;;;;;;;;;28.82;76.14;101105.25;5041416;28;70263;-39
2023/10/20 00:07:47;;;;;;;;;;;;;;;28.82;76.82;101109.84;5057693;28;66105;-41
2023/10/20 00:10:17;;;;;;;;;;;;;;;28.82;77.04;101107.13;5040902;28;70547;-40
2023/10/20 00:12:47;;;;;;;;;;;;;;;28.76;77.45;101106.06;5037077;28;66538;-40
2023/10/20 00:15:17;;;;;;;;;;;;;;;28.79;77.90;101111.06;5036082;28;70394;-40
2023/10/20 00:17:48;;;;;;;;;;;;;;;28.79;77.88;101108.38;5039702;28;66151;-41
2023/10/20 00:20:18;;;;;;;;;;;;;;;28.83;78.53;101115.00;5040158;28;70268;-42
2023/10/20 00:22:48;;;;;;;;;;;;;;;28.85;77.93;101110.25;5037806;28;66090;-41
2023/10/20 00:25:18;;;;;;;;;;;;;;;28.88;78.31;101109.03;5041025;28;70423;-42
2023/10/20 00:27:47;;;;;;;;;;;;;;;28.90;77.99;101113.19;5036816;28;65992;-41
2023/10/20 00:30:17;;;;;;;;;;;;;;;28.91;78.36;101114.84;5039454;28;69808;-44
2023/10/20 00:32:49;;;;;;;;;;;;;;;28.92;77.89;101105.72;5039277;28;66630;-43
2023/10/20 00:35:19;;;;;;;;;;;;;;;28.93;77.63;101107.38;5055050;28;70509;-43
2023/10/20 00:37:48;;;;;;;;;;;;;;;28.96;77.46;101106.97;5038033;28;66995;-42
2023/10/20 00:40:20;;;;;;;;;;;;;;;29.03;76.72;101112.47;5039275;28;69418;-43
2023/10/20 00:42:50;;;;;;;;;;;;;;;29.08;74.82;101109.94;5040719;28;65956;-41
2023/10/20 00:45:19;;;;;;;;;;;;;;;29.12;73.74;101110.41;5037377;28;69818;-42
2023/10/20 00:47:49;;;;;;;;;;;;;;;29.16;72.50;101114.34;5038784;28;67027;-42
2023/10/20 00:50:19;;;;;;;;;;;;;;;29.20;71.85;101112.06;5037422;28;70648;-42
2023/10/20 00:52:49;;;;;;;;;;;;;;;29.25;71.31;101117.69;5053372;28;66691;-41
2023/10/20 00:55:20;;;;;;;;;;;;;;;29.29;71.26;101117.09;5040482;28;70422;-41
2023/10/20 00:57:50;;;;;;;;;;;;;;;29.32;70.46;101119.38;5035483;28;67302;-41
2023/10/20 01:00:20;;;;;;;;;;;;;;;29.36;70.14;101115.25;5035609;28;70300;-41
2023/10/20 01:02:52;;;;;;;;;;;;;;;29.38;70.45;101118.56;5036748;28;66100;-41
2023/10/20 01:05:25;;;;;;;;;;;;;;;29.42;70.07;101121.72;5036318;28;70138;-40
2023/10/20 01:07:54;;;;;;;;;;;;;;;29.46;69.99;101116.72;5037236;28;66247;-40
2023/10/20 01:10:24;;;;;;;;;;;;;;;29.47;69.73;101119.19;5038251;28;70242;-41
2023/10/20 01:12:54;;;;;;;;;;;;;;;29.50;69.64;101118.78;5039045;28;66717;-41
2023/10/20 01:15:24;;;;;;;;;;;;;;;29.52;68.86;101110.47;5052616;28;69648;-41
2023/10/20 01:17:55;;;;;;;;;;;;;;;29.55;69.24;101110.91;5033956;28;66499;-41
2023/10/20 01:20:25;;;;;;;;;;;;;;;29.58;69.15;101109.66;5037098;28;70132;-41
2023/10/20 01:22:54;;;;;;;;;;;;;;;29.60;68.44;101113.00;5034051;28;66141;-41
2023/10/20 01:25:26;;;;;;;;;;;;;;;29.62;68.46;101110.94;5036883;28;70056;-41
2023/10/20 01:27:56;;;;;;;;;;;;;;;29.65;68.24;101110.53;5040226;28;66651;-41
2023/10/20 01:30:26;;;;;;;;;;;;;;;29.67;68.69;101113.88;5040552;28;70350;-40
2023/10/20 01:32:58;;;;;;;;;;;;;;;29.68;68.33;101112.81;5041027;28;66839;-41
2023/10/20 01:35:28;;;;;;;;;;;;;;;29.70;68.60;101115.31;5056399;28;69861;-41
2023/10/20 01:37:58;;;;;;;;;;;;;;;29.72;68.34;101114.06;5035015;28;66252;-41
2023/10/20 01:40:28;;;;;;;;;;;;;;;29.74;68.13;101109.28;5034795;28;70412;-41
2023/10/20 01:42:57;;;;;;;;;;;;;;;29.77;67.86;101103.47;5054608;28;66807;-43
2023/10/20 01:45:28;;;;;;;;;;;;;;;29.80;68.15;101102.22;5040994;28;69512;-43
2023/10/20 01:47:58;;;;;;;;;;;;;;;29.82;68.28;101100.16;5041245;28;65741;-43
2023/10/20 01:50:28;;;;;;;;;;;;;;;29.84;68.05;101104.31;5056734;28;70275;-42
2023/10/20 01:52:58;;;;;;;;;;;;;;;29.85;67.88;101102.44;5054612;28;66722;-42
2023/10/20 01:55:28;;;;;;;;;;;;;;;29.90;67.61;101107.22;5037819;28;70236;-42
2023/10/20 01:57:58;;;;;;;;;;;;;;;29.91;67.79;101108.88;5050916;28;66523;-43
2023/10/20 02:00:28;;;;;;;;;;;;;;;29.93;67.85;101107.63;5052956;28;70636;-43
2023/10/20 02:02:58;;;;;;;;;;;;;;;29.96;67.49;101109.09;5043504;28;65885;-42
2023/10/20 02:05:28;;;;;;;;;;;;;;;29.99;67.44;101103.25;5042911;28;70898;-43
2023/10/20 02:07:58;;;;;;;;;;;;;;;30.01;67.54;101093.06;5040701;28;66829;-42
2023/10/20 02:10:28;;;;;;;;;;;;;;;30.04;67.55;101098.06;5042599;28;70489;-42
2023/10/20 02:12:57;;;;;;;;;;;;;;;30.05;67.41;101089.72;5041278;28;66045;-42
2023/10/20 02:15:27;;;;;;;;;;;;;;;30.08;67.24;101093.88;5041106;28;70473;-42
2023/10/20 02:17:57;;;;;;;;;;;;;;;30.11;67.65;101090.75;5042500;28;66072;-42
2023/10/20 02:20:28;;;;;;;;;;;;;;;30.14;67.51;101087.63;5048773;28;69803;-42
2023/10/20 02:22:58;;;;;;;;;;;;;;;30.16;67.27;101079.31;5046980;28;66149;-42
2023/10/20 02:25:27;;;;;;;;;;;;;;;30.20;66.92;101075.13;5029468;28;70699;-42
2023/10/20 02:27:57;;;;;;;;;;;;;;;30.22;67.39;101073.91;5038360;28;66181;-46
2023/10/20 02:30:30;;;;;;;;;;;;;;;30.25;67.00;101072.66;5042151;28;69329;-44
2023/10/20 02:33:03;;;;;;;;;;;;;;;30.27;67.22;101068.69;5039452;28;66381;-42
2023/10/20 02:35:33;;;;;;;;;;;;;;;30.31;66.97;101070.97;5041922;28;69542;-42
2023/10/20 02:38:04;;;;;;;;;;;;;;;30.32;66.89;101072.66;5042055;28;65928;-44
2023/10/20 02:40:33;;;;;;;;;;;;;;;30.35;67.21;101061.41;5046752;28;71406;-43
2023/10/20 02:43:03;;;;;;;;;;;;;;;30.38;67.07;101064.50;5039669;28;66902;-43
2023/10/20 02:45:33;;;;;;;;;;;;;;;30.40;66.95;101064.31;5043185;28;70653;-43
2023/10/20 02:48:03;;;;;;;;;;;;;;;30.42;67.32;101056.78;5042387;28;67225;-42
2023/10/20 02:50:35;;;;;;;;;;;;;;;30.47;67.01;101054.28;5057206;28;70429;-42
2023/10/20 02:53:05;;;;;;;;;;;;;;;30.49;67.14;101052.19;5042859;28;66418;-42
2023/10/20 02:55:35;;;;;;;;;;;;;;;30.52;67.13;101051.75;5053988;28;69537;-42
2023/10/20 02:58:04;;;;;;;;;;;;;;;30.55;66.90;101051.34;5042289;28;66581;-42
2023/10/20 03:00:34;;;;;;;;;;;;;;;30.57;67.08;101043.84;5029959;28;70831;-43
2023/10/20 03:03:04;;;;;;;;;;;;;;;30.60;67.21;101038.00;5042443;28;65999;-43
2023/10/20 03:05:34;;;;;;;;;;;;;;;30.63;66.61;101036.72;5041032;28;69605;-43
2023/10/20 03:08:04;;;;;;;;;;;;;;;30.66;66.52;101037.13;5042744;28;66338;-43
2023/10/20 03:10:35;;;;;;;;;;;;;;;30.70;66.47;101032.09;5041016;28;70963;-43
2023/10/20 03:13:05;;;;;;;;;;;;;;;30.71;66.71;101029.19;5056212;28;66527;-47
2023/10/20 03:15:35;;;;;;;;;;;;;;;30.75;66.88;101028.75;5040488;28;69970;-43
2023/10/20 03:18:05;;;;;;;;;;;;;;;30.77;66.71;101015.84;5039746;28;66004;-42
2023/10/20 03:20:36;;;;;;;;;;;;;;;30.81;66.47;101017.09;5038749;28;69716;-42
2023/10/20 03:23:13;;;;;;;;;;;;;;;30.83;66.46;101004.16;5052898;28;66020;-43
2023/10/20 03:25:43;;;;;;;;;;;;;;;30.87;66.23;101013.50;5038711;28;70474;-42
2023/10/20 03:28:13;;;;;;;;;;;;;;;30.89;66.25;101006.00;5040641;28;66246;-43
2023/10/20 03:30:43;;;;;;;;;;;;;;;30.92;66.42;101000.16;5056632;28;70241;-43
2023/10/20 03:33:16;;;;;;;;;;;;;;;30.95;66.67;100997.00;5042113;28;66270;-42
2023/10/20 03:35:46;;;;;;;;;;;;;;;30.97;66.46;100996.78;5040283;28;70526;-43
2023/10/20 03:38:16;;;;;;;;;;;;;;;31.00;66.38;100989.06;5041170;28;65669;-43
2023/10/20 03:40:46;;;;;;;;;;;;;;;31.01;66.23;100985.31;5039620;28;69983;-43
2023/10/20 03:43:16;;;;;;;;;;;;;;;31.03;66.34;100979.66;5025523;28;65520;-43
2023/10/20 03:45:49;;;;;;;;;;;;;;;31.05;66.48;100981.09;5042783;28;70363;-43
2023/10/20 03:48:23;;;;;;;;;;;;;;;31.08;66.37;100977.13;5035923;28;66524;-45
2023/10/20 03:50:53;;;;;;;;;;;;;;;31.10;66.54;100967.72;5042262;28;70381;-43
2023/10/20 03:53:26;;;;;;;;;;;;;;;31.12;66.30;100960.22;5057168;28;65865;-43
2023/10/20 03:55:58;;;;;;;;;;;;;;;31.15;66.19;100958.94;5055893;28;70230;-42
2023/10/20 03:58:29;;;;;;;;;;;;;;;31.16;66.46;100956.00;5037482;28;66622;-43
2023/10/20 04:01:01;;;;;;;;;;;;;;;31.20;66.31;100950.13;5039133;28;70606;-43
2023/10/20 04:03:31;;;;;;;;;;;;;;;31.23;66.25;100955.13;5039913;28;67078;-42
2023/10/20 04:06:05;;;;;;;;;;;;;;;31.24;65.84;100952.19;5039632;28;70055;-43
2023/10/20 04:08:34;;;;;;;;;;;;;;;31.27;65.83;100950.94;5041248;28;67136;-42
2023/10/20 04:11:04;;;;;;;;;;;;;;;31.28;66.01;100949.88;5041731;28;70628;-42
2023/10/20 04:13:34;;;;;;;;;;;;;;;31.30;66.17;100950.47;5042329;28;65986;-42
2023/10/20 04:16:12;;;;;;;;;;;;;;;31.32;65.96;100942.97;5033698;28;69796;-43
2023/10/20 04:18:43;;;;;;;;;;;;;;;31.33;65.99;100939.19;5041467;28;67143;-42
2023/10/20 04:21:13;;;;;;;;;;;;;;;31.35;65.69;100937.09;5043085;28;70554;-44
2023/10/20 04:23:45;;;;;;;;;;;;;;;31.36;65.98;100928.75;5039834;28;66195;-43
2023/10/20 04:26:20;;;;;;;;;;;;;;;31.37;66.03;100935.84;5041202;28;69911;-43
2023/10/20 04:29:33;;;;;;;;;;;;;;;31.41;65.74;100925.41;5038051;28;65447;-42
2023/10/20 04:43:35;;;;;;;;;;;;;;;31.50;65.86;100902.34;5029276;28;70495;-42
2023/10/20 04:47:06;;;;;;;;;;;;;;;31.53;65.63;100903.78;5040862;28;65507;-42
2023/10/20 05:08:05;;;;;;;;;;;;;;;31.72;65.32;100855.81;5041767;28;66378;-42
2023/10/20 05:10:35;;;;;;;;;;;;;;;31.75;65.39;100867.03;5058647;28;70216;-42
2023/10/20 05:13:07;;;;;;;;;;;;;;;31.77;65.06;100861.41;5050853;28;66740;-42
2023/10/20 05:15:40;;;;;;;;;;;;;;;31.78;65.35;100855.72;5036097;28;70719;-43
2023/10/20 05:18:14;;;;;;;;;;;;;;;31.80;65.24;100852.81;5042612;28;66708;-41
2023/10/20 05:20:47;;;;;;;;;;;;;;;31.82;64.97;100850.72;5043070;28;69798;-42
2023/10/20 05:23:17;;;;;;;;;;;;;;;31.84;65.02;100837.72;5041127;28;66592;-42
2023/10/20 05:25:47;;;;;;;;;;;;;;;31.87;64.94;100841.88;5041140;28;70273;-43
2023/10/20 05:28:17;;;;;;;;;;;;;;;31.88;65.15;100827.25;5042627;28;66184;-42
2023/10/20 05:30:46;;;;;;;;;;;;;;;31.89;64.93;100835.16;5040852;28;70568;-42
2023/10/20 05:33:16;;;;;;;;;;;;;;;31.92;65.13;100829.31;5041091;28;67223;-43
2023/10/20 05:35:48;;;;;;;;;;;;;;;31.94;65.00;100821.78;5040175;28;68742;-43
2023/10/20 05:38:19;;;;;;;;;;;;;;;31.96;64.82;100821.56;5042346;28;67006;-43
2023/10/20 05:40:56;;;;;;;;;;;;;;;31.97;64.86;100823.19;5041248;28;69316;-43
2023/10/20 05:43:26;;;;;;;;;;;;;;;32.00;64.54;100826.28;5042613;28;66756;-43
2023/10/20 05:45:56;;;;;;;;;;;;;;;32.03;64.78;100820.38;5041113;28;69476;-42
2023/10/20 05:48:26;;;;;;;;;;;;;;;32.03;64.69;100806.81;5045611;28;66475;-43
2023/10/20 05:50:59;;;;;;;;;;;;;;;32.05;64.74;100802.00;5032881;28;70775;-43
2023/10/20 05:53:29;;;;;;;;;;;;;;;32.08;64.68;100791.75;5043559;28;66426;-43
2023/10/20 05:55:59;;;;;;;;;;;;;;;32.09;64.57;100791.50;5043229;28;70383;-42
2023/10/20 05:58:33;;;;;;;;;;;;;;;32.10;64.48;100786.94;5041002;28;67018;-42
2023/10/20 06:01:11;;;;;;;;;;;;;;;32.12;64.52;100785.59;5040161;28;70606;-44
2023/10/20 06:03:41;;;;;;;;;;;;;;;32.15;64.50;100784.31;5044119;28;66900;-44
2023/10/20 06:06:11;;;;;;;;;;;;;;;32.15;64.61;100789.75;5052055;28;71027;-43
2023/10/20 06:08:41;;;;;;;;;;;;;;;32.17;64.41;100787.63;5029507;28;66797;-42
2023/10/20 06:11:21;;;;;;;;;;;;;;;32.19;64.42;100785.53;5043080;28;69073;-45
2023/10/20 06:13:52;;;;;;;;;;;;;;;32.21;64.34;100788.84;5041142;28;66459;-44
2023/10/20 06:16:24;;;;;;;;;;;;;;;32.21;64.52;100788.84;5043805;28;70468;-42
2023/10/20 06:18:54;;;;;;;;;;;;;;;32.22;64.37;100782.34;5042729;28;66578;-43
2023/10/20 06:21:24;;;;;;;;;;;;;;;32.24;64.13;100783.78;5041481;28;70535;-43
2023/10/20 06:23:53;;;;;;;;;;;;;;;32.26;64.20;100776.25;5043331;28;66005;-42
2023/10/20 06:26:23;;;;;;;;;;;;;;;32.28;64.14;100767.84;5043098;28;70770;-42
2023/10/20 06:28:53;;;;;;;;;;;;;;;32.28;64.10;100765.13;5042262;28;66034;-41
2023/10/20 06:34:23;;;;;;;;;;;;;;;32.31;64.08;100756.53;5035203;28;66437;-42
2023/10/20 06:37:01;;;;;;;;;;;;;;;32.32;64.08;100750.06;5042495;28;70599;-42
2023/10/20 06:39:30;;;;;;;;;;;;;;;32.33;64.06;100743.53;5042923;28;66018;-42
2023/10/20 06:42:01;;;;;;;;;;;;;;;32.33;64.19;100746.25;5038342;28;69911;-42
2023/10/20 06:44:30;;;;;;;;;;;;;;;32.34;63.93;100728.91;5042566;28;66818;-42
2023/10/20 06:47:01;;;;;;;;;;;;;;;32.37;63.91;100728.44;5042448;28;70782;-41
2023/10/20 06:49:32;;;;;;;;;;;;;;;32.38;63.94;100729.28;5033749;28;66019;-42
2023/10/20 06:52:03;;;;;;;;;;;;;;;32.39;63.61;100731.75;5052508;28;70466;-42
2023/10/20 06:54:33;;;;;;;;;;;;;;;32.40;63.82;100728.00;5041610;28;66683;-42
2023/10/20 06:57:03;;;;;;;;;;;;;;;32.40;64.04;100722.56;5042478;28;70937;-42
2023/10/20 06:59:32;;;;;;;;;;;;;;;32.41;63.71;100707.91;5043130;28;65954;-42
2023/10/20 07:02:04;;;;;;;;;;;;;;;32.42;63.72;100709.56;5057003;28;70283;-42
2023/10/20 07:04:34;;;;;;;;;;;;;;;32.42;63.81;100701.41;5042376;28;65803;-42
2023/10/20 07:07:09;;;;;;;;;;;;;;;32.41;63.83;100699.78;5045817;28;70022;-42
2023/10/20 07:09:40;;;;;;;;;;;;;;;32.43;63.88;100683.22;5042107;28;66927;-43
2023/10/20 07:12:10;;;;;;;;;;;;;;;32.44;63.90;100674.03;5043687;28;69708;-44
2023/10/20 07:14:46;;;;;;;;;;;;;;;32.44;63.81;100669.44;5042786;28;65425;-43
2023/10/20 07:17:15;;;;;;;;;;;;;;;32.46;63.76;100666.53;5039687;28;70316;-42
2023/10/20 07:19:45;;;;;;;;;;;;;;;32.47;63.69;100669.00;5043017;28;67276;-43
2023/10/20 07:22:15;;;;;;;;;;;;;;;32.47;63.78;100669.00;5042001;28;69654;-42
2023/10/20 07:24:47;;;;;;;;;;;;;;;32.49;63.88;100666.88;5038202;28;66897;-43
2023/10/20 07:27:17;;;;;;;;;;;;;;;32.50;63.99;100659.53;5040918;28;70283;-43
2023/10/20 07:29:47;;;;;;;;;;;;;;;32.51;63.96;100653.03;5034904;28;66684;-41
2023/10/20 07:32:17;;;;;;;;;;;;;;;32.54;63.93;100658.03;5040000;28;69855;-42
2023/10/20 07:34:47;;;;;;;;;;;;;;;32.54;63.88;100652.59;5042633;28;65925;-43
2023/10/20 07:37:23;;;;;;;;;;;;;;;32.57;63.79;100649.41;5034274;28;70416;-43
2023/10/20 07:39:52;;;;;;;;;;;;;;;32.57;63.75;100646.69;5042618;28;66089;-42
2023/10/20 07:42:22;;;;;;;;;;;;;;;32.59;63.71;100643.72;5041367;28;70271;-42
2023/10/20 07:44:52;;;;;;;;;;;;;;;32.59;63.72;100643.72;5040364;28;65287;-42
2023/10/20 07:47:22;;;;;;;;;;;;;;;32.61;63.66;100645.13;5039970;28;69299;-43
2023/10/20 07:49:52;;;;;;;;;;;;;;;32.61;63.64;100644.31;5041127;28;66607;-41
2023/10/20 07:52:21;;;;;;;;;;;;;;;32.63;63.67;100650.34;5039226;28;70382;-42
2023/10/20 07:54:51;;;;;;;;;;;;;;;32.64;63.75;100632.97;5041200;28;65591;-43
2023/10/20 07:57:22;;;;;;;;;;;;;;;32.63;63.61;100624.00;5040773;28;70738;-42
2023/10/20 07:59:53;;;;;;;;;;;;;;;32.67;63.58;100635.22;5036988;28;65438;-42
2023/10/20 08:02:23;;;;;;;;;;;;;;;32.67;63.78;100635.22;5037964;28;69964;-43
2023/10/20 08:04:54;;;;;;;;;;;;;;;32.69;63.53;100641.25;5041926;28;66492;-42
2023/10/20 08:07:24;;;;;;;;;;;;;;;32.69;63.66;100639.34;5039220;28;70516;-42
2023/10/20 08:09:54;;;;;;;;;;;;;;;32.71;63.83;100641.84;5040672;28;65398;-43
2023/10/20 08:12:23;;;;;;;;;;;;;;;32.73;63.86;100653.25;5040280;28;70114;-42
2023/10/20 08:14:53;;;;;;;;;;;;;;;32.75;63.87;100661.19;5040100;28;67040;-42
2023/10/20 08:17:23;;;;;;;;;;;;;;;32.78;63.71;100672.38;5039054;28;70147;-42
2023/10/20 08:19:54;;;;;;;;;;;;;;;32.79;63.74;100671.34;5038706;28;67032;-42
2023/10/20 08:22:24;;;;;;;;;;;;;;;32.83;63.85;100667.06;5039862;28;69815;-41
2023/10/20 08:24:53;;;;;;;;;;;;;;;32.84;64.03;100660.56;5040591;28;66536;-41
2023/10/20 08:27:23;;;;;;;;;;;;;;;32.87;64.10;100651.94;5038835;28;70249;-42
2023/10/20 08:29:56;;;;;;;;;;;;;;;32.89;64.10;100660.69;5038067;28;65890;-42
2023/10/20 08:32:27;;;;;;;;;;;;;;;32.92;64.07;100659.38;5037416;28;70306;-42
2023/10/20 08:34:57;;;;;;;;;;;;;;;32.96;63.91;100666.00;5036912;28;65667;-43
2023/10/20 08:37:31;;;;;;;;;;;;;;;33.00;64.14;100671.81;5036300;28;69582;-41
2023/10/20 08:40:01;;;;;;;;;;;;;;;33.02;64.37;100658.81;5037946;28;66906;-43
2023/10/20 08:42:30;;;;;;;;;;;;;;;33.06;63.99;100663.50;5037522;28;70693;-42
2023/10/20 08:45:00;;;;;;;;;;;;;;;33.11;64.13;100657.34;5038879;28;66489;-42
2023/10/20 08:47:30;;;;;;;;;;;;;;;33.16;63.90;100660.19;5037840;28;70154;-43
2023/10/20 08:50:00;;;;;;;;;;;;;;;33.19;64.12;100669.75;5037284;28;64358;-43
2023/10/20 08:52:31;;;;;;;;;;;;;;;33.21;64.13;100670.31;5027700;28;68126;-42
2023/10/20 08:55:01;;;;;;;;;;;;;;;33.22;64.03;100675.53;5052169;28;65938;-42
2023/10/20 08:57:31;;;;;;;;;;;;;;;33.24;63.91;100673.41;5047078;28;70108;-43
2023/10/20 09:00:01;;;;;;;;;;;;;;;33.27;64.03;100675.63;5042425;28;66052;-43
2023/10/20 09:02:39;;;;;;;;;;;;;;;33.32;63.91;100680.31;5041940;28;70309;-42
2023/10/20 09:05:09;;;;;;;;;;;;;;;33.34;63.84;100684.44;5041366;28;66161;-43
2023/10/20 09:07:39;;;;;;;;;;;;;;;33.37;63.57;100683.97;5037940;28;70172;-43
2023/10/20 09:10:09;;;;;;;;;;;;;;;33.38;63.50;100685.63;5040537;28;67055;-42
2023/10/20 09:12:39;;;;;;;;;;;;;;;33.41;63.91;100684.31;5039746;28;69603;-41
2023/10/20 09:15:11;;;;;;;;;;;;;;;33.45;63.89;100679.22;5039043;28;65937;-42
2023/10/20 09:17:41;;;;;;;;;;;;;;;33.47;63.62;100687.97;5038043;28;69021;-42
2023/10/20 09:20:14;;;;;;;;;;;;;;;33.49;63.71;100702.97;5039434;28;66226;-42
2023/10/20 09:22:44;;;;;;;;;;;;;;;33.52;64.55;100712.53;5042498;28;70276;-41
2023/10/20 09:25:13;;;;;;;;;;;;;;;33.52;64.78;100723.41;5043691;28;65298;-40
2023/10/20 09:27:44;;;;;;;;;;;;;;;33.54;65.21;100727.59;5039752;28;70759;-41
2023/10/20 09:30:14;;;;;;;;;;;;;;;33.57;64.95;100737.97;5040739;28;66014;-41
2023/10/20 09:32:44;;;;;;;;;;;;;;;33.58;65.02;100744.25;5040730;28;70443;-41
2023/10/20 09:35:14;;;;;;;;;;;;;;;33.59;64.81;100743.97;5040233;28;66403;-40
2023/10/20 09:37:50;;;;;;;;;;;;;;;33.61;64.99;100748.38;5034770;28;69322;-42
2023/10/20 09:40:20;;;;;;;;;;;;;;;33.63;64.95;100751.66;5038783;28;66382;-41
2023/10/20 09:42:50;;;;;;;;;;;;;;;33.64;64.44;100754.13;5040614;28;70556;-42
2023/10/20 09:45:23;;;;;;;;;;;;;;;33.64;65.20;100765.03;5036833;28;66080;-41
2023/10/20 09:47:57;;;;;;;;;;;;;;;33.65;65.08;100761.22;5034019;28;70584;-42
2023/10/20 09:50:31;;;;;;;;;;;;;;;33.65;64.85;100761.22;5042971;28;66949;-40
2023/10/20 09:53:02;;;;;;;;;;;;;;;33.65;65.08;100766.66;5041160;28;69109;-41
2023/10/20 09:55:32;;;;;;;;;;;;;;;33.65;65.01;100772.09;5040972;28;66409;-42
2023/10/20 09:58:02;;;;;;;;;;;;;;;33.66;65.25;100781.13;5042371;28;70379;-41
2023/10/20 10:00:32;;;;;;;;;;;;;;;33.66;65.18;100784.66;5040758;28;66008;-41
2023/10/20 10:03:02;;;;;;;;;;;;;;;33.66;64.60;100784.66;5042082;28;70636;-40
2023/10/20 10:05:33;;;;;;;;;;;;;;;33.65;64.99;100788.41;5040768;28;66165;-41
2023/10/20 10:08:07;;;;;;;;;;;;;;;33.64;64.84;100797.66;5043702;28;69747;-40
2023/10/20 10:10:37;;;;;;;;;;;;;;;33.63;64.96;100804.19;5041345;28;66482;-41
2023/10/20 10:13:07;;;;;;;;;;;;;;;33.63;65.07;100800.59;5043707;28;69755;-40
2023/10/20 10:15:46;;;;;;;;;;;;;;;33.64;65.13;100813.16;5043466;28;66189;-41
2023/10/20 10:18:18;;;;;;;;;;;;;;;33.63;65.26;100823.22;5043150;28;70556;-43
2023/10/20 10:20:50;;;;;;;;;;;;;;;33.62;65.14;100837.88;5043717;28;66037;-41
2023/10/20 10:23:27;;;;;;;;;;;;;;;33.62;64.79;100827.00;5040404;28;69537;-42
2023/10/20 10:25:58;;;;;;;;;;;;;;;33.60;65.18;100829.16;5037840;28;66797;-42
2023/10/20 10:28:28;;;;;;;;;;;;;;;33.60;65.47;100829.16;5034510;28;69691;-42
2023/10/20 10:31:01;;;;;;;;;;;;;;;33.60;65.32;100829.16;5043239;28;66806;-40
2023/10/20 10:33:32;;;;;;;;;;;;;;;33.58;65.19;100821.22;5042760;28;69777;-41
2023/10/20 10:36:04;;;;;;;;;;;;;;;33.56;65.12;100817.06;5038515;28;66490;-41
2023/10/20 10:38:45;;;;;;;;;;;;;;;33.55;65.61;100812.72;5046088;28;70330;-41
2023/10/20 10:41:22;;;;;;;;;;;;;;;33.12;67.52;100816.63;5040491;28;65763;-41
2023/10/20 10:43:55;;;;;;;;;;;;;;;32.91;68.61;100816.13;5052502;28;70266;-40
2023/10/20 10:46:34;;;;;;;;;;;;;;;32.80;69.32;100830.53;5042932;28;65628;-40
2023/10/20 10:49:10;;;;;;;;;;;;;;;32.72;69.51;100828.16;5041484;28;69477;-41
2023/10/20 10:51:46;;;;;;;;;;;;;;;32.67;69.97;100825.31;5039931;28;67187;-42
2023/10/20 10:54:18;;;;;;;;;;;;;;;32.64;70.30;100825.78;5041559;28;70315;-41
2023/10/20 10:56:48;;;;;;;;;;;;;;;32.60;70.46;100832.78;5043276;28;65507;-42
2023/10/20 10:59:19;;;;;;;;;;;;;;;32.57;70.79;100844.06;5041033;28;70317;-41
2023/10/20 11:01:49;;;;;;;;;;;;;;;32.53;71.14;100856.47;5040645;28;66854;-41
2023/10/20 11:04:18;;;;;;;;;;;;;;;32.57;70.99;100863.06;5042676;28;70581;-40
2023/10/20 11:06:48;;;;;;;;;;;;;;;32.52;71.27;100861.06;5042532;28;66180;-41
2023/10/20 11:09:27;;;;;;;;;;;;;;;32.52;71.39;100866.50;5040334;28;69537;-41
2023/10/20 11:11:57;;;;;;;;;;;;;;;32.51;71.50;100864.84;5042138;28;67228;-40
2023/10/20 11:14:26;;;;;;;;;;;;;;;32.43;71.71;100868.69;5041593;28;70835;-42
2023/10/20 11:16:56;;;;;;;;;;;;;;;32.41;71.88;100870.81;5042071;28;66105;-42
2023/10/20 11:19:26;;;;;;;;;;;;;;;32.37;72.03;100879.63;5040854;28;70598;-40
2023/10/20 11:21:56;;;;;;;;;;;;;;;32.39;72.36;100886.50;5040976;28;66733;-42
2023/10/20 11:24:53;;;;;;;;;;;;;;;32.35;72.92;100896.16;5040994;28;69974;-40
2023/10/20 11:27:23;;;;;;;;;;;;;;;32.38;72.96;100908.47;5037827;28;66763;-41
2023/10/20 11:29:59;;;;;;;;;;;;;;;32.38;73.36;100920.13;5040256;28;69100;-40
2023/10/20 11:32:29;;;;;;;;;;;;;;;32.46;72.90;100938.84;5038271;28;66557;-41
2023/10/20 11:34:59;;;;;;;;;;;;;;;32.65;72.00;100933.34;5041038;28;69285;-42
2023/10/20 11:37:29;;;;;;;;;;;;;;;32.76;71.08;100938.00;5041908;28;65821;-42
2023/10/20 11:40:02;;;;;;;;;;;;;;;32.83;70.69;100933.31;5039612;28;70368;-41
2023/10/20 11:42:32;;;;;;;;;;;;;;;32.88;70.33;100928.00;5036491;28;66911;-43
2023/10/20 11:45:02;;;;;;;;;;;;;;;32.92;70.13;100925.66;5035908;28;70084;-41
2023/10/20 11:47:33;;;;;;;;;;;;;;;32.94;70.09;100927.06;5040195;28;66226;-43
2023/10/20 11:50:04;;;;;;;;;;;;;;;32.97;69.80;100931.22;5040171;28;69600;-43
2023/10/20 11:52:33;;;;;;;;;;;;;;;32.97;69.78;100933.09;5056738;28;66481;-41
2023/10/20 11:55:03;;;;;;;;;;;;;;;32.99;69.77;100930.97;5041332;28;70240;-42
2023/10/20 11:57:33;;;;;;;;;;;;;;;32.99;69.73;100936.41;5032747;28;66609;-41
2023/10/20 12:00:13;;;;;;;;;;;;;;;32.99;69.82;100936.41;5041516;28;70707;-43
2023/10/20 12:02:43;;;;;;;;;;;;;;;32.98;69.88;100934.75;5043623;28;66558;-40
2023/10/20 12:05:13;;;;;;;;;;;;;;;32.97;69.84;100938.53;5042422;28;70587;-42
2023/10/20 12:07:43;;;;;;;;;;;;;;;32.96;69.93;100937.72;5038867;28;66587;-40
2023/10/20 12:10:13;;;;;;;;;;;;;;;32.95;69.96;100946.91;5039513;28;70067;-41
2023/10/20 12:12:42;;;;;;;;;;;;;;;32.94;70.05;100950.69;5039222;28;66099;-40
2023/10/20 12:15:12;;;;;;;;;;;;;;;32.93;70.05;100960.75;5035527;28;70316;-41
2023/10/20 12:17:42;;;;;;;;;;;;;;;32.92;70.00;100969.94;5029682;28;65642;-40
2023/10/20 12:20:13;;;;;;;;;;;;;;;32.91;69.92;100962.84;5036564;28;70532;-41
2023/10/20 12:22:42;;;;;;;;;;;;;;;32.88;70.30;100968.75;5029862;28;66145;-42
2023/10/20 12:25:12;;;;;;;;;;;;;;;32.78;71.84;100971.19;5037758;28;70223;-42
2023/10/20 12:27:42;;;;;;;;;;;;;;;32.82;71.18;100983.28;5032494;28;65486;-41
2023/10/20 12:30:12;;;;;;;;;;;;;;;32.82;72.13;100982.44;5035285;28;69025;-41
2023/10/20 12:32:43;;;;;;;;;;;;;;;32.78;72.11;100994.81;5036323;28;66084;-42
2023/10/20 12:35:13;;;;;;;;;;;;;;;32.77;72.66;100988.56;5039399;28;69833;-41
2023/10/20 12:37:43;;;;;;;;;;;;;;;32.70;73.57;100983.22;5036333;28;65352;-41
2023/10/20 12:40:18;;;;;;;;;;;;;;;32.67;73.34;100980.97;5036526;28;70139;-42
2023/10/20 12:42:49;;;;;;;;;;;;;;;32.70;72.75;100979.66;5035919;28;65322;-42
2023/10/20 12:45:18;;;;;;;;;;;;;;;32.71;73.03;100976.75;5035682;28;71248;-43
2023/10/20 12:47:48;;;;;;;;;;;;;;;32.66;73.65;100982.03;5038749;28;67054;-41
2023/10/20 12:50:19;;;;;;;;;;;;;;;32.59;74.53;100977.75;5040481;28;70461;-41
2023/10/20 12:52:50;;;;;;;;;;;;;;;32.60;74.07;100982.97;5039552;28;65643;-42
2023/10/20 12:55:20;;;;;;;;;;;;;;;32.62;73.69;100990.84;5040308;28;69933;-42
2023/10/20 12:57:49;;;;;;;;;;;;;;;32.58;74.27;100995.09;5034018;28;66206;-42
2023/10/20 13:00:20;;;;;;;;;;;;;;;32.57;74.45;101004.28;5040994;28;70263;-43
2023/10/20 13:02:50;;;;;;;;;;;;;;;32.49;74.87;101002.75;5034441;28;65891;-42
2023/10/20 13:05:21;;;;;;;;;;;;;;;32.46;74.79;101003.19;5039706;28;70387;-42
2023/10/20 13:07:51;;;;;;;;;;;;;;;32.34;76.10;101011.22;5040574;28;65270;-44
2023/10/20 13:10:28;;;;;;;;;;;;;;;32.26;76.06;101008.81;5037636;28;70491;-40
2023/10/20 13:13:00;;;;;;;;;;;;;;;32.26;75.37;101025.09;5040535;28;67000;-43
2023/10/20 13:15:30;;;;;;;;;;;;;;;32.31;74.59;101027.97;5039478;28;70343;-43
2023/10/20 13:18:00;;;;;;;;;;;;;;;32.29;74.37;101035.53;5032642;28;65901;-40
2023/10/20 13:20:30;;;;;;;;;;;;;;;32.19;75.06;101036.03;5034877;28;69932;-43
2023/10/20 13:23:00;;;;;;;;;;;;;;;32.18;74.76;101036.25;5035729;28;66058;-42
2023/10/20 13:25:30;;;;;;;;;;;;;;;32.15;75.08;101037.56;5040357;28;69957;-49
2023/10/20 13:28:00;;;;;;;;;;;;;;;32.11;75.75;101049.09;5042662;28;66999;-41